sensor_id;sensor_type;location;lat;lon;timestamp;pressure;altitude;pressure_sealevel;temperature;humidity
11339;BME280;5724;42.684;23.252;2023-01-27T00:00:13;93502.19;;;-2.65;100.00
11339;BME280;5724;42.684;23.252;2023-01-27T00:02:40;93495.66;;;-2.45;100.00
11339;BME280;5724;42.684;23.252;2023-01-27T00:05:07;93492.06;;;-2.26;100.00
11339;BME280;5724;42.684;23.252;2023-01-27T00:07:33;93497.38;;;-2.13;100.00
11339;BME280;5724;42.684;23.252;2023-01-27T00:09:58;93497.69;;;-2.14;100.00
11339;BME280;5724;42.684;23.252;2023-01-27T00:12:25;93494.38;;;-1.97;100.00
11339;BME280;5724;42.684;23.252;2023-01-27T00:15:10;93492.28;;;-1.87;100.00
11339;BME280;5724;42.684;23.252;2023-01-27T00:17:36;93491.06;;;-1.81;100.00
11339;BME280;5724;42.684;23.252;2023-01-27T00:20:02;93486.59;;;-1.71;100.00
11339;BME280;5724;42.684;23.252;2023-01-27T00:22:28;93470.03;;;-1.74;100.00
11339;BME280;5724;42.684;23.252;2023-01-27T00:25:11;93471.44;;;-2.12;100.00
11339;BME280;5724;42.684;23.252;2023-01-27T00:27:37;93470.38;;;-2.39;100.00
11339;BME280;5724;42.684;23.252;2023-01-27T00:30:04;93457.94;;;-2.57;100.00
11339;BME280;5724;42.684;23.252;2023-01-27T00:32:30;93472.00;;;-2.65;100.00
11339;BME280;5724;42.684;23.252;2023-01-27T00:35:15;93458.69;;;-2.70;100.00
11339;BME280;5724;42.684;23.252;2023-01-27T00:37:42;93473.88;;;-2.66;100.00
11339;BME280;5724;42.684;23.252;2023-01-27T00:40:10;93460.88;;;-2.72;100.00
11339;BME280;5724;42.684;23.252;2023-01-27T00:42:36;93465.75;;;-2.74;100.00
11339;BME280;5724;42.684;23.252;2023-01-27T00:45:02;93454.25;;;-2.75;100.00
11339;BME280;5724;42.684;23.252;2023-01-27T00:47:49;93457.53;;;-2.64;100.00
11339;BME280;5724;42.684;23.252;2023-01-27T00:50:15;93481.88;;;-2.66;100.00
11339;BME280;5724;42.684;23.252;2023-01-27T00:52:41;93470.78;;;-2.73;100.00
11339;BME280;5724;42.684;23.252;2023-01-27T00:55:07;93466.84;;;-2.75;100.00
11339;BME280;5724;42.684;23.252;2023-01-27T00:57:35;93466.75;;;-2.56;100.00
11339;BME280;5724;42.684;23.252;2023-01-27T01:00:01;93465.63;;;-2.42;100.00
11339;BME280;5724;42.684;23.252;2023-01-27T01:02:26;93455.69;;;-2.27;100.00
11339;BME280;5724;42.684;23.252;2023-01-27T01:04:52;93469.16;;;-2.19;100.00
11339;BME280;5724;42.684;23.252;2023-01-27T01:07:17;93465.34;;;-2.04;100.00
11339;BME280;5724;42.684;23.252;2023-01-27T01:09:43;93462.81;;;-1.87;100.00
11339;BME280;5724;42.684;23.252;2023-01-27T01:12:08;93464.41;;;-1.86;100.00
11339;BME280;5724;42.684;23.252;2023-01-27T01:14:34;93464.06;;;-1.70;100.00
11339;BME280;5724;42.684;23.252;2023-01-27T01:16:59;93476.59;;;-1.57;100.00
11339;BME280;5724;42.684;23.252;2023-01-27T01:19:24;93468.56;;;-2.16;100.00
11339;BME280;5724;42.684;23.252;2023-01-27T01:21:50;93476.84;;;-2.40;100.00
11339;BME280;5724;42.684;23.252;2023-01-27T01:24:15;93475.53;;;-2.56;100.00
11339;BME280;5724;42.684;23.252;2023-01-27T01:26:41;93476.53;;;-2.66;100.00
11339;BME280;5724;42.684;23.252;2023-01-27T01:29:06;93474.97;;;-2.67;100.00
11339;BME280;5724;42.684;23.252;2023-01-27T01:31:32;93474.84;;;-2.62;100.00
11339;BME280;5724;42.684;23.252;2023-01-27T01:33:57;93474.16;;;-2.67;100.00
11339;BME280;5724;42.684;23.252;2023-01-27T01:36:23;93475.66;;;-2.75;100.00
11339;BME280;5724;42.684;23.252;2023-01-27T01:38:54;93475.84;;;-2.71;100.00
11339;BME280;5724;42.684;23.252;2023-01-27T01:41:20;93471.00;;;-2.69;100.00
11339;BME280;5724;42.684;23.252;2023-01-27T01:43:49;93480.50;;;-2.63;100.00
11339;BME280;5724;42.684;23.252;2023-01-27T01:46:15;93487.72;;;-2.64;100.00
11339;BME280;5724;42.684;23.252;2023-01-27T01:51:24;93478.31;;;-2.61;100.00
11339;BME280;5724;42.684;23.252;2023-01-27T01:54:02;93476.31;;;-2.42;100.00
11339;BME280;5724;42.684;23.252;2023-01-27T01:56:34;93466.59;;;-2.24;100.00
11339;BME280;5724;42.684;23.252;2023-01-27T01:59:05;93458.25;;;-2.09;100.00
11339;BME280;5724;42.684;23.252;2023-01-27T02:01:33;93461.88;;;-2.05;100.00
11339;BME280;5724;42.684;23.252;2023-01-27T02:04:03;93459.72;;;-2.03;100.00
11339;BME280;5724;42.684;23.252;2023-01-27T02:06:46;93446.69;;;-1.95;100.00
11339;BME280;5724;42.684;23.252;2023-01-27T02:09:13;93438.56;;;-1.90;100.00
11339;BME280;5724;42.684;23.252;2023-01-27T02:11:39;93439.59;;;-2.00;100.00
11339;BME280;5724;42.684;23.252;2023-01-27T02:14:04;93434.72;;;-1.98;100.00
11339;BME280;5724;42.684;23.252;2023-01-27T02:16:30;93427.69;;;-2.30;100.00
11339;BME280;5724;42.684;23.252;2023-01-27T02:18:56;93424.53;;;-2.46;100.00
11339;BME280;5724;42.684;23.252;2023-01-27T02:21:21;93419.31;;;-2.51;100.00
11339;BME280;5724;42.684;23.252;2023-01-27T02:23:48;93411.75;;;-2.63;100.00
11339;BME280;5724;42.684;23.252;2023-01-27T02:26:27;93398.81;;;-2.69;100.00
11339;BME280;5724;42.684;23.252;2023-01-27T02:28:56;93400.75;;;-2.61;100.00
11339;BME280;5724;42.684;23.252;2023-01-27T02:31:22;93389.72;;;-2.68;100.00
11339;BME280;5724;42.684;23.252;2023-01-27T02:33:49;93409.41;;;-2.64;100.00
11339;BME280;5724;42.684;23.252;2023-01-27T02:36:16;93407.34;;;-2.67;100.00
11339;BME280;5724;42.684;23.252;2023-01-27T02:38:45;93400.41;;;-2.68;100.00
11339;BME280;5724;42.684;23.252;2023-01-27T02:43:51;93400.28;;;-2.63;100.00
11339;BME280;5724;42.684;23.252;2023-01-27T02:46:16;93403.97;;;-2.59;100.00
11339;BME280;5724;42.684;23.252;2023-01-27T02:48:42;93410.06;;;-2.45;100.00
11339;BME280;5724;42.684;23.252;2023-01-27T02:51:08;93412.41;;;-2.29;100.00
11339;BME280;5724;42.684;23.252;2023-01-27T02:53:33;93418.44;;;-2.24;100.00
11339;BME280;5724;42.684;23.252;2023-01-27T02:55:59;93412.66;;;-2.17;100.00
11339;BME280;5724;42.684;23.252;2023-01-27T02:58:24;93423.03;;;-2.02;100.00
11339;BME280;5724;42.684;23.252;2023-01-27T03:00:50;93420.13;;;-1.92;100.00
11339;BME280;5724;42.684;23.252;2023-01-27T03:03:15;93416.28;;;-1.77;100.00
11339;BME280;5724;42.684;23.252;2023-01-27T03:05:40;93407.69;;;-1.65;100.00
11339;BME280;5724;42.684;23.252;2023-01-27T03:08:06;93401.91;;;-1.59;100.00
11339;BME280;5724;42.684;23.252;2023-01-27T03:10:32;93399.28;;;-1.50;100.00
11339;BME280;5724;42.684;23.252;2023-01-27T03:12:57;93404.69;;;-1.73;100.00
11339;BME280;5724;42.684;23.252;2023-01-27T03:15:23;93401.97;;;-2.17;100.00
11339;BME280;5724;42.684;23.252;2023-01-27T03:18:08;93401.44;;;-2.42;100.00
11339;BME280;5724;42.684;23.252;2023-01-27T03:20:47;93388.00;;;-2.50;100.00
11339;BME280;5724;42.684;23.252;2023-01-27T03:23:14;93383.72;;;-2.51;100.00
11339;BME280;5724;42.684;23.252;2023-01-27T03:25:45;93387.00;;;-2.54;100.00
11339;BME280;5724;42.684;23.252;2023-01-27T03:28:11;93381.56;;;-2.49;100.00
11339;BME280;5724;42.684;23.252;2023-01-27T03:30:37;93375.81;;;-2.56;100.00
11339;BME280;5724;42.684;23.252;2023-01-27T03:33:04;93376.50;;;-2.51;100.00
11339;BME280;5724;42.684;23.252;2023-01-27T03:35:31;93386.22;;;-2.55;100.00
11339;BME280;5724;42.684;23.252;2023-01-27T03:38:05;93368.75;;;-2.52;100.00
11339;BME280;5724;42.684;23.252;2023-01-27T03:40:49;93371.56;;;-2.57;100.00
11339;BME280;5724;42.684;23.252;2023-01-27T03:43:34;93351.69;;;-2.43;100.00
11339;BME280;5724;42.684;23.252;2023-01-27T03:46:19;93337.53;;;-2.43;100.00
11339;BME280;5724;42.684;23.252;2023-01-27T03:48:52;93352.16;;;-2.27;100.00
11339;BME280;5724;42.684;23.252;2023-01-27T03:51:21;93350.09;;;-2.08;100.00
11339;BME280;5724;42.684;23.252;2023-01-27T03:53:46;93345.44;;;-2.02;100.00
11339;BME280;5724;42.684;23.252;2023-01-27T03:56:13;93341.38;;;-2.13;100.00
11339;BME280;5724;42.684;23.252;2023-01-27T03:58:39;93354.41;;;-2.20;100.00
11339;BME280;5724;42.684;23.252;2023-01-27T04:01:24;93353.09;;;-2.45;100.00
11339;BME280;5724;42.684;23.252;2023-01-27T04:03:50;93333.25;;;-2.67;100.00
11339;BME280;5724;42.684;23.252;2023-01-27T04:06:37;93347.59;;;-2.49;100.00
11339;BME280;5724;42.684;23.252;2023-01-27T04:09:30;93361.91;;;-2.45;100.00
11339;BME280;5724;42.684;23.252;2023-01-27T04:11:59;93372.06;;;-2.55;100.00
11339;BME280;5724;42.684;23.252;2023-01-27T04:14:28;93385.81;;;-2.48;100.00
11339;BME280;5724;42.684;23.252;2023-01-27T04:16:57;93392.34;;;-2.41;100.00
11339;BME280;5724;42.684;23.252;2023-01-27T04:19:23;93411.94;;;-2.32;100.00
11339;BME280;5724;42.684;23.252;2023-01-27T04:21:50;93413.69;;;-2.27;100.00
11339;BME280;5724;42.684;23.252;2023-01-27T04:24:16;93418.25;;;-2.27;100.00
11339;BME280;5724;42.684;23.252;2023-01-27T04:26:48;93410.84;;;-2.31;100.00
11339;BME280;5724;42.684;23.252;2023-01-27T04:29:14;93420.06;;;-2.37;100.00
11339;BME280;5724;42.684;23.252;2023-01-27T04:31:39;93429.34;;;-2.20;100.00
11339;BME280;5724;42.684;23.252;2023-01-27T04:34:06;93421.00;;;-2.19;100.00
11339;BME280;5724;42.684;23.252;2023-01-27T04:36:31;93438.31;;;-2.03;100.00
11339;BME280;5724;42.684;23.252;2023-01-27T04:38:57;93439.66;;;-1.91;100.00
11339;BME280;5724;42.684;23.252;2023-01-27T04:41:22;93432.56;;;-1.74;100.00
11339;BME280;5724;42.684;23.252;2023-01-27T04:43:47;93427.91;;;-1.59;100.00
11339;BME280;5724;42.684;23.252;2023-01-27T04:46:13;93442.47;;;-1.52;100.00
11339;BME280;5724;42.684;23.252;2023-01-27T04:48:39;93453.50;;;-1.53;100.00
11339;BME280;5724;42.684;23.252;2023-01-27T04:51:04;93439.03;;;-1.88;100.00
11339;BME280;5724;42.684;23.252;2023-01-27T04:53:30;93427.53;;;-2.11;100.00
11339;BME280;5724;42.684;23.252;2023-01-27T04:56:04;93429.56;;;-2.31;100.00
11339;BME280;5724;42.684;23.252;2023-01-27T04:58:30;93463.59;;;-2.22;100.00
11339;BME280;5724;42.684;23.252;2023-01-27T05:00:55;93459.75;;;-2.16;100.00
11339;BME280;5724;42.684;23.252;2023-01-27T05:03:21;93434.19;;;-2.22;100.00
11339;BME280;5724;42.684;23.252;2023-01-27T05:05:46;93439.25;;;-2.35;100.00
11339;BME280;5724;42.684;23.252;2023-01-27T05:08:12;93437.69;;;-2.36;100.00
11339;BME280;5724;42.684;23.252;2023-01-27T05:10:37;93420.22;;;-2.33;100.00
11339;BME280;5724;42.684;23.252;2023-01-27T05:13:03;93429.09;;;-2.10;100.00
11339;BME280;5724;42.684;23.252;2023-01-27T05:15:29;93447.78;;;-1.96;100.00
11339;BME280;5724;42.684;23.252;2023-01-27T05:17:54;93427.41;;;-1.84;100.00
11339;BME280;5724;42.684;23.252;2023-01-27T05:20:21;93417.56;;;-1.75;100.00
11339;BME280;5724;42.684;23.252;2023-01-27T05:22:46;93424.06;;;-1.67;100.00
11339;BME280;5724;42.684;23.252;2023-01-27T05:25:12;93436.25;;;-1.61;100.00
11339;BME280;5724;42.684;23.252;2023-01-27T05:27:38;93429.91;;;-1.65;100.00
11339;BME280;5724;42.684;23.252;2023-01-27T05:30:03;93432.78;;;-1.61;100.00
11339;BME280;5724;42.684;23.252;2023-01-27T05:32:29;93426.88;;;-1.50;100.00
11339;BME280;5724;42.684;23.252;2023-01-27T05:34:55;93425.81;;;-1.40;100.00
11339;BME280;5724;42.684;23.252;2023-01-27T05:37:20;93417.13;;;-1.46;100.00
11339;BME280;5724;42.684;23.252;2023-01-27T05:39:46;93411.78;;;-1.90;100.00
11339;BME280;5724;42.684;23.252;2023-01-27T05:42:11;93408.66;;;-2.06;100.00
11339;BME280;5724;42.684;23.252;2023-01-27T05:44:36;93418.03;;;-2.17;100.00
11339;BME280;5724;42.684;23.252;2023-01-27T05:47:02;93414.47;;;-2.26;100.00
11339;BME280;5724;42.684;23.252;2023-01-27T05:49:27;93407.72;;;-2.24;100.00
11339;BME280;5724;42.684;23.252;2023-01-27T05:51:53;93404.56;;;-2.26;100.00
11339;BME280;5724;42.684;23.252;2023-01-27T05:54:18;93411.72;;;-2.21;100.00
11339;BME280;5724;42.684;23.252;2023-01-27T05:56:44;93413.22;;;-2.29;100.00
11339;BME280;5724;42.684;23.252;2023-01-27T05:59:10;93415.41;;;-2.31;100.00
11339;BME280;5724;42.684;23.252;2023-01-27T06:01:36;93427.75;;;-2.21;100.00
11339;BME280;5724;42.684;23.252;2023-01-27T06:04:02;93420.00;;;-2.23;100.00
11339;BME280;5724;42.684;23.252;2023-01-27T06:06:29;93429.13;;;-2.24;100.00
11339;BME280;5724;42.684;23.252;2023-01-27T06:08:55;93426.75;;;-2.25;100.00
11339;BME280;5724;42.684;23.252;2023-01-27T06:11:21;93428.16;;;-2.28;100.00
11339;BME280;5724;42.684;23.252;2023-01-27T06:13:48;93422.03;;;-2.28;100.00
11339;BME280;5724;42.684;23.252;2023-01-27T06:16:15;93427.41;;;-2.06;100.00
11339;BME280;5724;42.684;23.252;2023-01-27T06:18:45;93417.44;;;-1.92;100.00
11339;BME280;5724;42.684;23.252;2023-01-27T06:21:13;93425.47;;;-1.92;100.00
11339;BME280;5724;42.684;23.252;2023-01-27T06:23:39;93421.34;;;-1.76;100.00
11339;BME280;5724;42.684;23.252;2023-01-27T06:26:09;93428.53;;;-1.62;100.00
11339;BME280;5724;42.684;23.252;2023-01-27T06:28:36;93428.03;;;-1.64;100.00
11339;BME280;5724;42.684;23.252;2023-01-27T06:31:28;93430.34;;;-1.49;100.00
11339;BME280;5724;42.684;23.252;2023-01-27T06:33:53;93437.53;;;-1.81;100.00
11339;BME280;5724;42.684;23.252;2023-01-27T06:36:20;93449.81;;;-2.02;100.00
11339;BME280;5724;42.684;23.252;2023-01-27T06:38:47;93440.91;;;-2.11;100.00
11339;BME280;5724;42.684;23.252;2023-01-27T06:41:13;93428.72;;;-2.17;100.00
11339;BME280;5724;42.684;23.252;2023-01-27T06:43:38;93441.41;;;-2.09;100.00
11339;BME280;5724;42.684;23.252;2023-01-27T06:46:04;93435.28;;;-2.23;100.00
11339;BME280;5724;42.684;23.252;2023-01-27T06:48:29;93444.78;;;-2.17;100.00
11339;BME280;5724;42.684;23.252;2023-01-27T06:50:55;93423.97;;;-2.20;100.00
11339;BME280;5724;42.684;23.252;2023-01-27T06:53:21;93444.59;;;-2.21;100.00
11339;BME280;5724;42.684;23.252;2023-01-27T06:55:47;93447.16;;;-2.16;100.00
11339;BME280;5724;42.684;23.252;2023-01-27T06:58:13;93444.59;;;-2.21;100.00
11339;BME280;5724;42.684;23.252;2023-01-27T07:00:40;93440.41;;;-2.13;100.00
11339;BME280;5724;42.684;23.252;2023-01-27T07:03:07;93437.63;;;-2.08;100.00
11339;BME280;5724;42.684;23.252;2023-01-27T07:05:33;93447.63;;;-2.00;100.00
11339;BME280;5724;42.684;23.252;2023-01-27T07:07:59;93456.22;;;-2.03;100.00
11339;BME280;5724;42.684;23.252;2023-01-27T07:10:25;93449.91;;;-2.07;100.00
11339;BME280;5724;42.684;23.252;2023-01-27T07:12:51;93458.53;;;-2.10;100.00
11339;BME280;5724;42.684;23.252;2023-01-27T07:15:16;93458.47;;;-2.19;100.00
11339;BME280;5724;42.684;23.252;2023-01-27T07:17:42;93453.38;;;-2.07;100.00
11339;BME280;5724;42.684;23.252;2023-01-27T07:20:12;93447.25;;;-1.85;100.00
11339;BME280;5724;42.684;23.252;2023-01-27T07:22:38;93456.91;;;-1.61;100.00
11339;BME280;5724;42.684;23.252;2023-01-27T07:25:04;93446.03;;;-1.56;100.00
11339;BME280;5724;42.684;23.252;2023-01-27T07:27:31;93440.31;;;-1.41;100.00
11339;BME280;5724;42.684;23.252;2023-01-27T07:29:56;93453.50;;;-1.22;100.00
11339;BME280;5724;42.684;23.252;2023-01-27T07:32:21;93451.31;;;-1.20;100.00
11339;BME280;5724;42.684;23.252;2023-01-27T07:34:47;93448.25;;;-1.05;100.00
11339;BME280;5724;42.684;23.252;2023-01-27T07:37:13;93440.34;;;-1.10;100.00
11339;BME280;5724;42.684;23.252;2023-01-27T07:39:39;93453.66;;;-0.88;100.00
11339;BME280;5724;42.684;23.252;2023-01-27T07:42:04;93450.97;;;-0.96;100.00
11339;BME280;5724;42.684;23.252;2023-01-27T07:44:31;93458.59;;;-0.81;100.00
11339;BME280;5724;42.684;23.252;2023-01-27T07:46:57;93458.44;;;-1.16;100.00
11339;BME280;5724;42.684;23.252;2023-01-27T07:49:23;93447.13;;;-1.57;100.00
11339;BME280;5724;42.684;23.252;2023-01-27T07:51:48;93447.94;;;-1.57;100.00
11339;BME280;5724;42.684;23.252;2023-01-27T07:54:14;93454.22;;;-1.61;100.00
11339;BME280;5724;42.684;23.252;2023-01-27T07:56:39;93460.13;;;-1.73;100.00
11339;BME280;5724;42.684;23.252;2023-01-27T07:59:05;93458.88;;;-1.67;100.00
11339;BME280;5724;42.684;23.252;2023-01-27T08:01:30;93456.81;;;-1.70;100.00
11339;BME280;5724;42.684;23.252;2023-01-27T08:03:57;93463.88;;;-1.74;100.00
11339;BME280;5724;42.684;23.252;2023-01-27T08:06:22;93458.81;;;-1.76;100.00
11339;BME280;5724;42.684;23.252;2023-01-27T08:08:48;93436.91;;;-1.55;100.00
11339;BME280;5724;42.684;23.252;2023-01-27T08:11:14;93439.44;;;-1.28;100.00
11339;BME280;5724;42.684;23.252;2023-01-27T08:13:40;93440.81;;;-1.08;100.00
11339;BME280;5724;42.684;23.252;2023-01-27T08:16:09;93449.13;;;-0.78;100.00
11339;BME280;5724;42.684;23.252;2023-01-27T08:18:35;93426.78;;;-0.74;100.00
11339;BME280;5724;42.684;23.252;2023-01-27T08:21:04;93451.41;;;-0.63;100.00
11339;BME280;5724;42.684;23.252;2023-01-27T08:23:32;93448.78;;;-0.46;100.00
11339;BME280;5724;42.684;23.252;2023-01-27T08:25:59;93451.44;;;-0.54;100.00
11339;BME280;5724;42.684;23.252;2023-01-27T08:28:26;93451.09;;;-0.62;100.00
11339;BME280;5724;42.684;23.252;2023-01-27T08:30:53;93467.94;;;-0.70;100.00
11339;BME280;5724;42.684;23.252;2023-01-27T08:33:20;93464.31;;;-0.74;100.00
11339;BME280;5724;42.684;23.252;2023-01-27T08:35:46;93467.03;;;-0.65;100.00
11339;BME280;5724;42.684;23.252;2023-01-27T08:38:14;93452.06;;;-0.97;100.00
11339;BME280;5724;42.684;23.252;2023-01-27T08:40:41;93467.13;;;-0.79;100.00
11339;BME280;5724;42.684;23.252;2023-01-27T08:43:07;93470.03;;;-1.29;100.00
11339;BME280;5724;42.684;23.252;2023-01-27T08:45:33;93472.66;;;-1.60;100.00
11339;BME280;5724;42.684;23.252;2023-01-27T08:47:59;93469.44;;;-1.70;100.00
11339;BME280;5724;42.684;23.252;2023-01-27T08:50:24;93474.28;;;-1.73;100.00
11339;BME280;5724;42.684;23.252;2023-01-27T08:52:50;93471.63;;;-1.73;100.00
11339;BME280;5724;42.684;23.252;2023-01-27T08:55:15;93466.69;;;-1.79;100.00
11339;BME280;5724;42.684;23.252;2023-01-27T08:57:41;93469.28;;;-1.88;100.00
11339;BME280;5724;42.684;23.252;2023-01-27T09:00:08;93475.56;;;-1.92;100.00
11339;BME280;5724;42.684;23.252;2023-01-27T09:02:36;93478.09;;;-1.87;100.00
11339;BME280;5724;42.684;23.252;2023-01-27T09:05:01;93477.38;;;-1.79;100.00
11339;BME280;5724;42.684;23.252;2023-01-27T09:07:27;93463.53;;;-1.95;100.00
11339;BME280;5724;42.684;23.252;2023-01-27T09:09:52;93463.22;;;-1.93;100.00
11339;BME280;5724;42.684;23.252;2023-01-27T09:12:18;93470.69;;;-1.90;100.00
11339;BME280;5724;42.684;23.252;2023-01-27T09:14:43;93459.59;;;-1.97;100.00
11339;BME280;5724;42.684;23.252;2023-01-27T09:17:09;93464.31;;;-1.81;100.00
11339;BME280;5724;42.684;23.252;2023-01-27T09:19:34;93463.69;;;-1.55;100.00
11339;BME280;5724;42.684;23.252;2023-01-27T09:22:01;93469.84;;;-1.32;100.00
11339;BME280;5724;42.684;23.252;2023-01-27T09:24:26;93463.44;;;-1.23;100.00
11339;BME280;5724;42.684;23.252;2023-01-27T09:26:52;93457.81;;;-1.12;100.00
11339;BME280;5724;42.684;23.252;2023-01-27T09:29:18;93468.03;;;-0.92;100.00
11339;BME280;5724;42.684;23.252;2023-01-27T09:31:43;93458.25;;;-0.88;100.00
11339;BME280;5724;42.684;23.252;2023-01-27T09:34:08;93455.00;;;-0.76;100.00
11339;BME280;5724;42.684;23.252;2023-01-27T09:36:39;93442.47;;;-0.90;100.00
11339;BME280;5724;42.684;23.252;2023-01-27T09:39:08;93442.22;;;-1.41;100.00
11339;BME280;5724;42.684;23.252;2023-01-27T09:44:37;93449.44;;;-1.87;100.00
11339;BME280;5724;42.684;23.252;2023-01-27T09:47:23;93445.91;;;-1.96;100.00
11339;BME280;5724;42.684;23.252;2023-01-27T09:49:59;93438.06;;;-1.92;100.00
11339;BME280;5724;42.684;23.252;2023-01-27T10:23:54;93412.69;;;-1.19;100.00
11339;BME280;5724;42.684;23.252;2023-01-27T10:29:05;93408.13;;;-1.19;100.00
11339;BME280;5724;42.684;23.252;2023-01-27T10:31:42;93406.91;;;-1.12;100.00
11339;BME280;5724;42.684;23.252;2023-01-27T10:34:35;93403.78;;;-1.37;100.00
11339;BME280;5724;42.684;23.252;2023-01-27T10:40:02;93395.28;;;-1.84;100.00
11339;BME280;5724;42.684;23.252;2023-01-27T10:43:00;93403.44;;;-1.89;100.00
11339;BME280;5724;42.684;23.252;2023-01-27T10:45:43;93402.13;;;-2.00;100.00
11339;BME280;5724;42.684;23.252;2023-01-27T10:48:17;93392.97;;;-1.99;100.00
11339;BME280;5724;42.684;23.252;2023-01-27T10:59:05;93399.53;;;-2.05;100.00
11339;BME280;5724;42.684;23.252;2023-01-27T11:01:39;93397.47;;;-2.08;100.00
11339;BME280;5724;42.684;23.252;2023-01-27T11:04:18;93407.25;;;-2.04;100.00
11339;BME280;5724;42.684;23.252;2023-01-27T11:06:46;93392.44;;;-2.10;100.00
11339;BME280;5724;42.684;23.252;2023-01-27T11:09:30;93398.56;;;-1.87;100.00
11339;BME280;5724;42.684;23.252;2023-01-27T11:12:01;93390.34;;;-1.68;100.00
11339;BME280;5724;42.684;23.252;2023-01-27T11:14:47;93402.88;;;-1.55;100.00
11339;BME280;5724;42.684;23.252;2023-01-27T11:22:36;93392.75;;;-1.35;100.00
11339;BME280;5724;42.684;23.252;2023-01-27T11:25:27;93392.00;;;-1.58;100.00
11339;BME280;5724;42.684;23.252;2023-01-27T11:28:05;93393.16;;;-1.95;100.00
11339;BME280;5724;42.684;23.252;2023-01-27T11:33:59;93362.63;;;-2.17;100.00
11339;BME280;5724;42.684;23.252;2023-01-27T11:36:28;93368.53;;;-2.06;100.00
11339;BME280;5724;42.684;23.252;2023-01-27T11:38:55;93377.97;;;-2.09;100.00
11339;BME280;5724;42.684;23.252;2023-01-27T11:41:22;93379.22;;;-2.06;100.00
11339;BME280;5724;42.684;23.252;2023-01-27T11:43:49;93376.44;;;-2.01;100.00
11339;BME280;5724;42.684;23.252;2023-01-27T11:46:21;93379.91;;;-2.00;100.00
11339;BME280;5724;42.684;23.252;2023-01-27T11:48:50;93371.81;;;-2.09;100.00
11339;BME280;5724;42.684;23.252;2023-01-27T11:51:38;93354.75;;;-2.13;100.00
11339;BME280;5724;42.684;23.252;2023-01-27T11:54:14;93332.16;;;-2.29;100.00
11339;BME280;5724;42.684;23.252;2023-01-27T11:56:44;93373.56;;;-2.05;100.00
11339;BME280;5724;42.684;23.252;2023-01-27T11:59:18;93368.84;;;-2.08;100.00
11339;BME280;5724;42.684;23.252;2023-01-27T12:01:51;93363.38;;;-2.03;100.00
11339;BME280;5724;42.684;23.252;2023-01-27T12:07:08;93362.56;;;-2.03;100.00
11339;BME280;5724;42.684;23.252;2023-01-27T12:09:38;93373.16;;;-1.98;100.00
11339;BME280;5724;42.684;23.252;2023-01-27T12:14:48;93367.13;;;-2.04;100.00
11339;BME280;5724;42.684;23.252;2023-01-27T12:17:21;93368.09;;;-1.99;100.00
11339;BME280;5724;42.684;23.252;2023-01-27T12:19:51;93373.63;;;-1.96;100.00
11339;BME280;5724;42.684;23.252;2023-01-27T12:22:35;93376.31;;;-1.96;100.00
11339;BME280;5724;42.684;23.252;2023-01-27T12:25:23;93367.38;;;-1.91;100.00
11339;BME280;5724;42.684;23.252;2023-01-27T12:27:58;93379.22;;;-1.84;100.00
11339;BME280;5724;42.684;23.252;2023-01-27T12:30:33;93370.47;;;-1.76;100.00
11339;BME280;5724;42.684;23.252;2023-01-27T12:33:12;93374.22;;;-1.77;100.00
11339;BME280;5724;42.684;23.252;2023-01-27T12:35:47;93373.75;;;-1.79;100.00
11339;BME280;5724;42.684;23.252;2023-01-27T12:38:24;93372.97;;;-1.79;100.00
11339;BME280;5724;42.684;23.252;2023-01-27T12:41:03;93367.66;;;-1.70;100.00
11339;BME280;5724;42.684;23.252;2023-01-27T12:43:30;93375.69;;;-1.70;100.00
11339;BME280;5724;42.684;23.252;2023-01-27T12:48:30;93375.88;;;-1.67;100.00
11339;BME280;5724;42.684;23.252;2023-01-27T12:51:04;93379.97;;;-1.69;100.00
11339;BME280;5724;42.684;23.252;2023-01-27T12:53:30;93374.44;;;-1.73;100.00
11339;BME280;5724;42.684;23.252;2023-01-27T12:56:08;93373.03;;;-1.70;100.00
11339;BME280;5724;42.684;23.252;2023-01-27T13:01:27;93375.81;;;-1.76;100.00
11339;BME280;5724;42.684;23.252;2023-01-27T13:04:08;93375.22;;;-1.73;100.00
11339;BME280;5724;42.684;23.252;2023-01-27T13:06:40;93373.81;;;-1.70;100.00
11339;BME280;5724;42.684;23.252;2023-01-27T13:09:25;93368.09;;;-1.46;100.00
11339;BME280;5724;42.684;23.252;2023-01-27T13:11:54;93364.59;;;-1.24;100.00
11339;BME280;5724;42.684;23.252;2023-01-27T13:14:21;93377.22;;;-1.16;100.00
11339;BME280;5724;42.684;23.252;2023-01-27T13:16:54;93373.59;;;-1.20;100.00
11339;BME280;5724;42.684;23.252;2023-01-27T13:19:29;93378.22;;;-1.43;100.00
11339;BME280;5724;42.684;23.252;2023-01-27T13:21:57;93380.22;;;-1.18;100.00
11339;BME280;5724;42.684;23.252;2023-01-27T13:24:31;93381.13;;;-1.31;100.00
11339;BME280;5724;42.684;23.252;2023-01-27T13:27:00;93383.06;;;-1.54;100.00
11339;BME280;5724;42.684;23.252;2023-01-27T13:29:30;93381.91;;;-1.84;100.00
11339;BME280;5724;42.684;23.252;2023-01-27T13:40:01;93379.47;;;-1.94;100.00
11339;BME280;5724;42.684;23.252;2023-01-27T13:42:50;93377.78;;;-1.90;100.00
11339;BME280;5724;42.684;23.252;2023-01-27T13:45:25;93376.38;;;-1.87;100.00
11339;BME280;5724;42.684;23.252;2023-01-27T13:47:57;93375.53;;;-1.96;100.00
11339;BME280;5724;42.684;23.252;2023-01-27T13:50:30;93382.75;;;-1.97;100.00
11339;BME280;5724;42.684;23.252;2023-01-27T13:52:58;93364.28;;;-2.07;100.00
11339;BME280;5724;42.684;23.252;2023-01-27T13:55:46;93375.81;;;-1.98;100.00
11339;BME280;5724;42.684;23.252;2023-01-27T14:16:21;93382.03;;;-2.11;100.00
11339;BME280;5724;42.684;23.252;2023-01-27T14:19:04;93382.09;;;-2.03;100.00
11339;BME280;5724;42.684;23.252;2023-01-27T14:21:43;93398.94;;;-2.02;100.00
11339;BME280;5724;42.684;23.252;2023-01-27T14:38:00;93406.59;;;-1.87;100.00
11339;BME280;5724;42.684;23.252;2023-01-27T14:40:52;93419.94;;;-1.73;100.00
11339;BME280;5724;42.684;23.252;2023-01-27T14:51:38;93413.09;;;-1.57;100.00
11339;BME280;5724;42.684;23.252;2023-01-27T14:54:31;93429.59;;;-1.86;100.00
11339;BME280;5724;42.684;23.252;2023-01-27T15:10:26;93446.25;;;-2.11;100.00
11339;BME280;5724;42.684;23.252;2023-01-27T15:13:25;93445.25;;;-2.15;100.00
11339;BME280;5724;42.684;23.252;2023-01-27T15:16:02;93446.53;;;-2.13;100.00